Simcoe-Lingwood

*Note: All times are displayed in the local standard time of the station location.
**Rain - Equipment is designed to accurately record liquid precipitation; under conditions when precipitation is not in liquid form, the data displayed may not properly reflect rainfall values.

Date Max Temp
(°C)
Min Temp
(°C)
Avg Temp
(°C)
Rain (mm) Avg RH (%)
Tue, Jan 15, 2019 -1.0 -7.3 -3.5 0.0 90.2
Mon, Jan 14, 2019 -1.4 -12.2 -7.4 0.0 86.3
Sun, Jan 13, 2019 -3.3 -8.8 -6.1 0.0 80.4
Sat, Jan 12, 2019 -3.7 -6.3 -5.2 0.0 72.4
Fri, Jan 11, 2019 -3.7 -11.4 -8.0 0.0 70.7
Thu, Jan 10, 2019 -3.8 -8.5 -5.9 0.0 76.2
Wed, Jan 09, 2019 2.7 -3.7 -1.6 0.0 82.3
DateTime Avg Temp (°C) Rain (mm) RH (%)
Wed, Jan 16, 2019 07:00 -1.4 0.0 89.4
Wed, Jan 16, 2019 06:00 -1.8 0.0 90.0
Wed, Jan 16, 2019 05:00 -2.3 0.0 89.3
Wed, Jan 16, 2019 04:00 -2.8 0.0 89.2
Wed, Jan 16, 2019 03:00 -3.0 0.0 89.8
Wed, Jan 16, 2019 02:00 -2.5 0.0 90.1
Wed, Jan 16, 2019 01:00 -1.7 0.0 90.9
Wed, Jan 16, 2019 00:00 -2.1 0.0 93.1
Tue, Jan 15, 2019 23:00 -2.3 0.0 91.9
Tue, Jan 15, 2019 22:00 -2.0 0.0 86.2
Tue, Jan 15, 2019 21:00 -2.1 0.0 87.7
Tue, Jan 15, 2019 20:00 -2.4 0.0 88.1
Tue, Jan 15, 2019 19:00 -3.2 0.0 90.4
Tue, Jan 15, 2019 18:00 -3.4 0.0 91.9
Tue, Jan 15, 2019 17:00 -2.9 0.0 89.8
Tue, Jan 15, 2019 16:00 -2.4 0.0 90.2
Tue, Jan 15, 2019 15:00 -1.9 0.0 87.5
Tue, Jan 15, 2019 14:00 -1.1 0.0 85.6
Tue, Jan 15, 2019 13:00 -1.1 0.0 84.2
Tue, Jan 15, 2019 12:00 -1.4 0.0 85.8
Tue, Jan 15, 2019 11:00 -2.2 0.0 88.5
Tue, Jan 15, 2019 10:00 -3.0 0.0 89.7
Tue, Jan 15, 2019 09:00 -3.6 0.0 90.3
Tue, Jan 15, 2019 08:00 -4.2 0.0 90.6
Tue, Jan 15, 2019 07:00 -5.1 0.0 92.4
Tue, Jan 15, 2019 06:00 -5.7 0.0 93.6
Tue, Jan 15, 2019 05:00 -5.9 0.0 93.5
Tue, Jan 15, 2019 04:00 -6.4 0.0 93.2
Tue, Jan 15, 2019 03:00 -7.2 0.0 93.5
Tue, Jan 15, 2019 02:00 -7.0 0.0 93.0
Tue, Jan 15, 2019 01:00 -6.9 0.0 93.2
Tue, Jan 15, 2019 00:00 -9.0 0.0 94.9
Mon, Jan 14, 2019 23:00 -9.1 0.0 94.5
Mon, Jan 14, 2019 22:00 -8.1 0.0 93.5
Mon, Jan 14, 2019 21:00 -7.7 0.0 92.1
Mon, Jan 14, 2019 20:00 -7.2 0.0 88.8
Mon, Jan 14, 2019 19:00 -6.2 0.0 83.4
Mon, Jan 14, 2019 18:00 -4.7 0.0 77.1
Mon, Jan 14, 2019 17:00 -2.8 0.0 69.4
Mon, Jan 14, 2019 16:00 -1.6 0.0 64.6
Mon, Jan 14, 2019 15:00 -1.8 0.0 64.4
Mon, Jan 14, 2019 14:00 -2.2 0.0 68.1
Mon, Jan 14, 2019 13:00 -3.5 0.0 73.3
Mon, Jan 14, 2019 12:00 -4.8 0.0 82.6
Mon, Jan 14, 2019 11:00 -6.6 0.0 91.2
Mon, Jan 14, 2019 10:00 -7.6 0.0 93.2
Mon, Jan 14, 2019 09:00 -8.5 0.0 94.6
Mon, Jan 14, 2019 08:00 -10.7 0.0 93.3


asterix Register now to access more data! asterix